sensor_id;sensor_type;location;lat;lon;timestamp;pressure;altitude;pressure_sealevel;temperature;humidity
9139;BME280;4604;48.616;9.548;2023-03-16T00:01:40;97240.44;;;0.18;100.00
9139;BME280;4604;48.616;9.548;2023-03-16T00:04:07;97244.78;;;0.17;100.00
9139;BME280;4604;48.616;9.548;2023-03-16T00:06:33;97248.03;;;0.23;100.00
9139;BME280;4604;48.616;9.548;2023-03-16T00:09:02;97249.78;;;0.22;100.00
9139;BME280;4604;48.616;9.548;2023-03-16T00:11:29;97234.66;;;0.11;100.00
9139;BME280;4604;48.616;9.548;2023-03-16T00:13:56;97243.81;;;0.20;100.00
9139;BME280;4604;48.616;9.548;2023-03-16T00:16:24;97247.44;;;0.16;100.00
9139;BME280;4604;48.616;9.548;2023-03-16T00:18:51;97245.00;;;0.13;100.00
9139;BME280;4604;48.616;9.548;2023-03-16T00:21:17;97246.59;;;0.15;100.00
9139;BME280;4604;48.616;9.548;2023-03-16T00:23:44;97240.88;;;0.07;100.00
9139;BME280;4604;48.616;9.548;2023-03-16T00:26:11;97245.03;;;0.11;100.00
9139;BME280;4604;48.616;9.548;2023-03-16T00:28:38;97249.25;;;0.14;100.00
9139;BME280;4604;48.616;9.548;2023-03-16T00:31:08;97256.47;;;0.07;100.00
9139;BME280;4604;48.616;9.548;2023-03-16T00:33:37;97253.38;;;-0.01;100.00
9139;BME280;4604;48.616;9.548;2023-03-16T00:36:06;97255.91;;;0.01;100.00
9139;BME280;4604;48.616;9.548;2023-03-16T00:38:35;97251.50;;;0.03;100.00
9139;BME280;4604;48.616;9.548;2023-03-16T00:41:05;97247.94;;;0.05;100.00
9139;BME280;4604;48.616;9.548;2023-03-16T00:43:34;97236.19;;;-0.04;100.00
9139;BME280;4604;48.616;9.548;2023-03-16T00:46:05;97245.53;;;0.01;100.00
9139;BME280;4604;48.616;9.548;2023-03-16T00:48:33;97251.69;;;-0.02;100.00
9139;BME280;4604;48.616;9.548;2023-03-16T00:51:01;97252.34;;;0.03;100.00
9139;BME280;4604;48.616;9.548;2023-03-16T00:53:31;97252.59;;;-0.03;100.00
9139;BME280;4604;48.616;9.548;2023-03-16T00:55:58;97256.78;;;-0.01;100.00
9139;BME280;4604;48.616;9.548;2023-03-16T00:58:27;97261.19;;;-0.03;100.00
9139;BME280;4604;48.616;9.548;2023-03-16T01:00:54;97252.78;;;-0.08;100.00
9139;BME280;4604;48.616;9.548;2023-03-16T01:03:21;97248.84;;;-0.16;100.00
9139;BME280;4604;48.616;9.548;2023-03-16T01:05:48;97247.03;;;-0.14;100.00
9139;BME280;4604;48.616;9.548;2023-03-16T01:08:16;97244.44;;;-0.14;100.00
9139;BME280;4604;48.616;9.548;2023-03-16T01:10:43;97251.16;;;-0.10;100.00
9139;BME280;4604;48.616;9.548;2023-03-16T01:13:09;97254.03;;;-0.16;100.00
9139;BME280;4604;48.616;9.548;2023-03-16T01:15:37;97257.59;;;-0.19;100.00
9139;BME280;4604;48.616;9.548;2023-03-16T01:18:04;97253.69;;;-0.09;100.00
9139;BME280;4604;48.616;9.548;2023-03-16T01:20:31;97243.38;;;-0.10;100.00
9139;BME280;4604;48.616;9.548;2023-03-16T01:22:58;97254.19;;;-0.01;100.00
9139;BME280;4604;48.616;9.548;2023-03-16T01:25:26;97243.91;;;-0.02;100.00
9139;BME280;4604;48.616;9.548;2023-03-16T01:27:52;97248.75;;;0.06;100.00
9139;BME280;4604;48.616;9.548;2023-03-16T01:30:19;97227.69;;;-0.07;100.00
9139;BME280;4604;48.616;9.548;2023-03-16T01:32:46;97241.81;;;0.06;100.00
9139;BME280;4604;48.616;9.548;2023-03-16T01:35:13;97235.69;;;0.07;100.00
9139;BME280;4604;48.616;9.548;2023-03-16T01:37:40;97231.44;;;0.06;100.00
9139;BME280;4604;48.616;9.548;2023-03-16T01:40:08;97229.75;;;0.05;100.00
9139;BME280;4604;48.616;9.548;2023-03-16T01:42:48;97236.13;;;0.17;100.00
9139;BME280;4604;48.616;9.548;2023-03-16T01:45:56;97236.81;;;0.22;100.00
9139;BME280;4604;48.616;9.548;2023-03-16T01:48:34;97239.16;;;0.27;100.00
9139;BME280;4604;48.616;9.548;2023-03-16T01:51:04;97233.91;;;0.28;100.00
9139;BME280;4604;48.616;9.548;2023-03-16T01:53:32;97226.78;;;0.33;100.00
9139;BME280;4604;48.616;9.548;2023-03-16T01:56:02;97227.47;;;0.56;100.00
9139;BME280;4604;48.616;9.548;2023-03-16T01:58:31;97216.03;;;0.60;100.00
9139;BME280;4604;48.616;9.548;2023-03-16T02:00:58;97219.25;;;0.84;100.00
9139;BME280;4604;48.616;9.548;2023-03-16T02:03:26;97219.53;;;0.78;100.00
9139;BME280;4604;48.616;9.548;2023-03-16T02:05:58;97216.75;;;1.00;100.00
9139;BME280;4604;48.616;9.548;2023-03-16T02:08:28;97218.13;;;0.90;100.00
9139;BME280;4604;48.616;9.548;2023-03-16T02:10:55;97201.28;;;0.79;100.00
9139;BME280;4604;48.616;9.548;2023-03-16T02:13:22;97210.69;;;0.82;100.00
9139;BME280;4604;48.616;9.548;2023-03-16T02:15:51;97216.16;;;0.95;100.00
9139;BME280;4604;48.616;9.548;2023-03-16T02:18:18;97213.00;;;0.88;100.00
9139;BME280;4604;48.616;9.548;2023-03-16T02:20:50;97204.34;;;0.88;100.00
9139;BME280;4604;48.616;9.548;2023-03-16T02:23:23;97213.31;;;0.99;100.00
9139;BME280;4604;48.616;9.548;2023-03-16T02:25:57;97215.72;;;1.04;100.00
9139;BME280;4604;48.616;9.548;2023-03-16T02:28:30;97203.66;;;1.03;100.00
9139;BME280;4604;48.616;9.548;2023-03-16T02:31:01;97193.44;;;1.17;100.00
9139;BME280;4604;48.616;9.548;2023-03-16T02:33:29;97188.13;;;1.01;100.00
9139;BME280;4604;48.616;9.548;2023-03-16T02:35:57;97191.03;;;0.95;100.00
9139;BME280;4604;48.616;9.548;2023-03-16T02:38:24;97191.69;;;0.99;100.00
9139;BME280;4604;48.616;9.548;2023-03-16T02:40:57;97187.09;;;0.87;100.00
9139;BME280;4604;48.616;9.548;2023-03-16T02:43:27;97183.81;;;0.83;100.00
9139;BME280;4604;48.616;9.548;2023-03-16T02:46:01;97185.63;;;0.81;100.00
9139;BME280;4604;48.616;9.548;2023-03-16T02:48:34;97181.97;;;0.85;100.00
9139;BME280;4604;48.616;9.548;2023-03-16T02:51:01;97182.72;;;0.87;100.00
9139;BME280;4604;48.616;9.548;2023-03-16T02:53:28;97189.69;;;0.87;100.00
9139;BME280;4604;48.616;9.548;2023-03-16T02:55:55;97184.28;;;0.91;100.00
9139;BME280;4604;48.616;9.548;2023-03-16T02:58:22;97192.63;;;0.98;100.00
9139;BME280;4604;48.616;9.548;2023-03-16T03:00:48;97197.13;;;0.94;100.00
9139;BME280;4604;48.616;9.548;2023-03-16T03:03:16;97190.16;;;0.95;100.00
9139;BME280;4604;48.616;9.548;2023-03-16T03:05:43;97196.97;;;0.97;100.00
9139;BME280;4604;48.616;9.548;2023-03-16T03:08:09;97194.63;;;0.93;100.00
9139;BME280;4604;48.616;9.548;2023-03-16T03:10:36;97201.41;;;0.95;100.00
9139;BME280;4604;48.616;9.548;2023-03-16T03:13:04;97181.75;;;0.90;100.00
9139;BME280;4604;48.616;9.548;2023-03-16T03:15:32;97170.72;;;0.84;100.00
9139;BME280;4604;48.616;9.548;2023-03-16T03:17:59;97170.56;;;0.88;100.00
9139;BME280;4604;48.616;9.548;2023-03-16T03:20:27;97181.53;;;0.94;100.00
9139;BME280;4604;48.616;9.548;2023-03-16T03:22:53;97177.16;;;0.95;100.00
9139;BME280;4604;48.616;9.548;2023-03-16T03:25:21;97166.94;;;0.92;100.00
9139;BME280;4604;48.616;9.548;2023-03-16T03:27:49;97160.97;;;1.07;100.00
9139;BME280;4604;48.616;9.548;2023-03-16T03:30:20;97166.44;;;1.20;100.00
9139;BME280;4604;48.616;9.548;2023-03-16T03:32:48;97147.75;;;0.94;100.00
9139;BME280;4604;48.616;9.548;2023-03-16T03:35:16;97167.53;;;0.97;100.00
9139;BME280;4604;48.616;9.548;2023-03-16T03:37:44;97171.06;;;0.96;100.00
9139;BME280;4604;48.616;9.548;2023-03-16T03:40:13;97174.44;;;0.98;100.00
9139;BME280;4604;48.616;9.548;2023-03-16T03:42:41;97176.06;;;1.00;100.00
9139;BME280;4604;48.616;9.548;2023-03-16T03:45:09;97179.03;;;0.93;100.00
9139;BME280;4604;48.616;9.548;2023-03-16T03:47:37;97163.03;;;0.83;100.00
9139;BME280;4604;48.616;9.548;2023-03-16T03:50:05;97167.00;;;0.90;100.00
9139;BME280;4604;48.616;9.548;2023-03-16T03:52:32;97167.97;;;0.88;100.00
9139;BME280;4604;48.616;9.548;2023-03-16T03:55:00;97148.28;;;0.83;100.00
9139;BME280;4604;48.616;9.548;2023-03-16T03:57:27;97157.16;;;0.97;100.00
9139;BME280;4604;48.616;9.548;2023-03-16T03:59:54;97143.97;;;0.82;100.00
9139;BME280;4604;48.616;9.548;2023-03-16T04:02:21;97154.00;;;0.90;100.00
9139;BME280;4604;48.616;9.548;2023-03-16T04:04:47;97150.28;;;0.96;100.00
9139;BME280;4604;48.616;9.548;2023-03-16T04:07:14;97151.13;;;0.96;100.00
9139;BME280;4604;48.616;9.548;2023-03-16T04:09:41;97142.50;;;0.96;100.00
9139;BME280;4604;48.616;9.548;2023-03-16T04:12:10;97142.66;;;0.93;100.00
9139;BME280;4604;48.616;9.548;2023-03-16T04:14:36;97141.94;;;0.89;100.00
9139;BME280;4604;48.616;9.548;2023-03-16T04:17:03;97140.41;;;0.85;100.00
9139;BME280;4604;48.616;9.548;2023-03-16T04:19:30;97141.00;;;0.90;100.00
9139;BME280;4604;48.616;9.548;2023-03-16T04:21:56;97141.66;;;0.95;100.00
9139;BME280;4604;48.616;9.548;2023-03-16T04:24:23;97128.66;;;0.95;100.00
9139;BME280;4604;48.616;9.548;2023-03-16T04:26:53;97140.56;;;0.99;100.00
9139;BME280;4604;48.616;9.548;2023-03-16T04:29:21;97128.50;;;0.98;100.00
9139;BME280;4604;48.616;9.548;2023-03-16T04:31:49;97125.91;;;0.98;100.00
9139;BME280;4604;48.616;9.548;2023-03-16T04:34:18;97125.81;;;1.00;100.00
9139;BME280;4604;48.616;9.548;2023-03-16T04:36:50;97125.59;;;1.04;100.00
9139;BME280;4604;48.616;9.548;2023-03-16T04:39:17;97117.34;;;1.14;100.00
9139;BME280;4604;48.616;9.548;2023-03-16T04:41:44;97123.00;;;1.22;100.00
9139;BME280;4604;48.616;9.548;2023-03-16T04:44:11;97115.66;;;1.13;100.00
9139;BME280;4604;48.616;9.548;2023-03-16T04:46:39;97120.72;;;1.16;100.00
9139;BME280;4604;48.616;9.548;2023-03-16T04:49:06;97114.34;;;1.21;100.00
9139;BME280;4604;48.616;9.548;2023-03-16T04:51:34;97101.97;;;1.26;100.00
9139;BME280;4604;48.616;9.548;2023-03-16T04:54:02;97105.56;;;1.24;100.00
9139;BME280;4604;48.616;9.548;2023-03-16T04:56:29;97101.91;;;1.28;100.00
9139;BME280;4604;48.616;9.548;2023-03-16T04:58:55;97105.25;;;1.30;100.00
9139;BME280;4604;48.616;9.548;2023-03-16T05:01:22;97107.03;;;1.30;100.00
9139;BME280;4604;48.616;9.548;2023-03-16T05:03:51;97109.63;;;1.30;100.00
9139;BME280;4604;48.616;9.548;2023-03-16T05:06:18;97119.88;;;1.33;100.00
9139;BME280;4604;48.616;9.548;2023-03-16T05:08:44;97115.88;;;1.43;100.00
9139;BME280;4604;48.616;9.548;2023-03-16T05:11:11;97114.81;;;1.47;100.00
9139;BME280;4604;48.616;9.548;2023-03-16T05:13:38;97119.06;;;1.48;100.00
9139;BME280;4604;48.616;9.548;2023-03-16T05:16:05;97124.00;;;1.37;99.30
9139;BME280;4604;48.616;9.548;2023-03-16T05:18:32;97124.25;;;1.15;100.00
9139;BME280;4604;48.616;9.548;2023-03-16T05:20:59;97126.84;;;1.15;100.00
9139;BME280;4604;48.616;9.548;2023-03-16T05:23:26;97126.69;;;1.18;100.00
9139;BME280;4604;48.616;9.548;2023-03-16T05:25:53;97124.09;;;1.18;100.00
9139;BME280;4604;48.616;9.548;2023-03-16T05:28:21;97120.25;;;1.08;100.00
9139;BME280;4604;48.616;9.548;2023-03-16T05:30:47;97121.38;;;1.19;100.00
9139;BME280;4604;48.616;9.548;2023-03-16T05:33:15;97119.03;;;1.15;100.00
9139;BME280;4604;48.616;9.548;2023-03-16T05:35:42;97124.25;;;1.15;100.00
9139;BME280;4604;48.616;9.548;2023-03-16T05:38:10;97117.72;;;1.23;100.00
9139;BME280;4604;48.616;9.548;2023-03-16T05:40:37;97109.16;;;1.21;100.00
9139;BME280;4604;48.616;9.548;2023-03-16T05:43:04;97117.50;;;1.28;100.00
9139;BME280;4604;48.616;9.548;2023-03-16T05:45:30;97112.91;;;1.33;100.00
9139;BME280;4604;48.616;9.548;2023-03-16T05:47:58;97116.19;;;1.37;100.00
9139;BME280;4604;48.616;9.548;2023-03-16T05:50:24;97112.03;;;1.50;100.00
9139;BME280;4604;48.616;9.548;2023-03-16T05:52:52;97116.47;;;1.48;100.00
9139;BME280;4604;48.616;9.548;2023-03-16T05:55:20;97107.69;;;1.50;100.00
9139;BME280;4604;48.616;9.548;2023-03-16T05:57:47;97113.81;;;1.49;100.00
9139;BME280;4604;48.616;9.548;2023-03-16T06:00:16;97110.56;;;1.62;100.00
9139;BME280;4604;48.616;9.548;2023-03-16T06:02:45;97107.56;;;1.69;99.53
9139;BME280;4604;48.616;9.548;2023-03-16T06:05:13;97115.44;;;1.85;98.16
9139;BME280;4604;48.616;9.548;2023-03-16T06:07:40;97099.19;;;1.80;96.96
9139;BME280;4604;48.616;9.548;2023-03-16T06:10:08;97106.44;;;1.91;97.28
9139;BME280;4604;48.616;9.548;2023-03-16T06:12:37;97117.75;;;1.90;97.07
9139;BME280;4604;48.616;9.548;2023-03-16T06:15:05;97113.66;;;1.86;97.83
9139;BME280;4604;48.616;9.548;2023-03-16T06:17:32;97097.28;;;1.84;97.04
9139;BME280;4604;48.616;9.548;2023-03-16T06:19:59;97113.00;;;1.98;96.56
9139;BME280;4604;48.616;9.548;2023-03-16T06:22:26;97112.06;;;1.99;96.33
9139;BME280;4604;48.616;9.548;2023-03-16T06:24:54;97108.91;;;2.10;95.68
9139;BME280;4604;48.616;9.548;2023-03-16T06:27:21;97114.72;;;2.15;96.00
9139;BME280;4604;48.616;9.548;2023-03-16T06:29:52;97114.19;;;2.24;95.26
9139;BME280;4604;48.616;9.548;2023-03-16T06:32:18;97119.34;;;2.42;93.49
9139;BME280;4604;48.616;9.548;2023-03-16T06:34:46;97120.34;;;2.39;94.42
9139;BME280;4604;48.616;9.548;2023-03-16T06:37:13;97119.00;;;2.64;92.44
9139;BME280;4604;48.616;9.548;2023-03-16T06:39:39;97119.06;;;2.62;92.37
9139;BME280;4604;48.616;9.548;2023-03-16T06:42:06;97108.56;;;2.64;92.45
9139;BME280;4604;48.616;9.548;2023-03-16T06:44:33;97106.88;;;2.78;91.55
9139;BME280;4604;48.616;9.548;2023-03-16T06:47:01;97109.13;;;2.85;91.36
9139;BME280;4604;48.616;9.548;2023-03-16T06:49:28;97108.28;;;2.84;91.53
9139;BME280;4604;48.616;9.548;2023-03-16T06:51:55;97108.69;;;2.92;91.54
9139;BME280;4604;48.616;9.548;2023-03-16T06:54:23;97104.16;;;2.96;91.63
9139;BME280;4604;48.616;9.548;2023-03-16T06:56:50;97098.81;;;2.97;91.71
9139;BME280;4604;48.616;9.548;2023-03-16T06:59:16;97102.03;;;3.03;91.87
9139;BME280;4604;48.616;9.548;2023-03-16T07:01:43;97113.78;;;3.10;91.49
9139;BME280;4604;48.616;9.548;2023-03-16T07:04:11;97109.03;;;3.16;90.73
9139;BME280;4604;48.616;9.548;2023-03-16T07:06:38;97096.84;;;3.17;91.09
9139;BME280;4604;48.616;9.548;2023-03-16T07:09:05;97108.59;;;3.24;91.01
9139;BME280;4604;48.616;9.548;2023-03-16T07:11:32;97114.66;;;3.39;90.14
9139;BME280;4604;48.616;9.548;2023-03-16T07:13:59;97110.13;;;3.42;90.25
9139;BME280;4604;48.616;9.548;2023-03-16T07:16:25;97114.16;;;3.62;88.95
9139;BME280;4604;48.616;9.548;2023-03-16T07:18:53;97118.75;;;3.59;88.95
9139;BME280;4604;48.616;9.548;2023-03-16T07:21:21;97123.09;;;3.73;88.70
9139;BME280;4604;48.616;9.548;2023-03-16T07:23:48;97118.75;;;3.73;88.74
9139;BME280;4604;48.616;9.548;2023-03-16T07:26:14;97124.44;;;3.80;88.46
9139;BME280;4604;48.616;9.548;2023-03-16T07:28:41;97119.59;;;3.88;88.86
9139;BME280;4604;48.616;9.548;2023-03-16T07:31:08;97129.38;;;3.99;88.75
9139;BME280;4604;48.616;9.548;2023-03-16T07:33:35;97123.22;;;4.00;86.97
9139;BME280;4604;48.616;9.548;2023-03-16T07:36:02;97118.47;;;4.06;86.43
9139;BME280;4604;48.616;9.548;2023-03-16T07:38:31;97120.44;;;4.03;86.06
9139;BME280;4604;48.616;9.548;2023-03-16T07:40:58;97122.28;;;4.15;86.52
9139;BME280;4604;48.616;9.548;2023-03-16T07:43:25;97128.41;;;4.28;85.75
9139;BME280;4604;48.616;9.548;2023-03-16T07:45:52;97125.44;;;4.35;85.19
9139;BME280;4604;48.616;9.548;2023-03-16T07:48:19;97132.72;;;4.44;85.86
9139;BME280;4604;48.616;9.548;2023-03-16T07:50:47;97126.41;;;4.61;84.56
9139;BME280;4604;48.616;9.548;2023-03-16T07:53:14;97123.03;;;4.73;83.22
9139;BME280;4604;48.616;9.548;2023-03-16T07:55:43;97125.16;;;4.81;82.17
9139;BME280;4604;48.616;9.548;2023-03-16T07:58:10;97125.38;;;4.90;82.59
9139;BME280;4604;48.616;9.548;2023-03-16T08:00:37;97122.28;;;4.98;82.15
9139;BME280;4604;48.616;9.548;2023-03-16T08:03:04;97120.50;;;4.99;81.16
9139;BME280;4604;48.616;9.548;2023-03-16T08:05:31;97126.59;;;5.12;80.95
9139;BME280;4604;48.616;9.548;2023-03-16T08:07:58;97116.88;;;5.14;78.84
9139;BME280;4604;48.616;9.548;2023-03-16T08:10:26;97130.84;;;5.27;79.10
9139;BME280;4604;48.616;9.548;2023-03-16T08:12:54;97117.31;;;5.33;78.34
9139;BME280;4604;48.616;9.548;2023-03-16T08:15:20;97133.09;;;5.59;77.31
9139;BME280;4604;48.616;9.548;2023-03-16T08:17:47;97132.56;;;5.67;76.06
9139;BME280;4604;48.616;9.548;2023-03-16T08:20:14;97129.63;;;5.71;76.29
9139;BME280;4604;48.616;9.548;2023-03-16T08:22:40;97128.59;;;5.74;75.54
9139;BME280;4604;48.616;9.548;2023-03-16T08:25:11;97130.38;;;5.86;74.91
9139;BME280;4604;48.616;9.548;2023-03-16T08:27:38;97140.34;;;6.07;74.63
9139;BME280;4604;48.616;9.548;2023-03-16T08:30:09;97142.53;;;6.13;73.50
9139;BME280;4604;48.616;9.548;2023-03-16T08:32:37;97133.31;;;6.20;72.34
9139;BME280;4604;48.616;9.548;2023-03-16T08:35:05;97142.81;;;6.34;72.07
9139;BME280;4604;48.616;9.548;2023-03-16T08:37:32;97139.56;;;6.43;70.41
9139;BME280;4604;48.616;9.548;2023-03-16T08:39:59;97130.44;;;6.49;71.51
9139;BME280;4604;48.616;9.548;2023-03-16T08:42:26;97128.50;;;6.63;69.76
9139;BME280;4604;48.616;9.548;2023-03-16T08:44:54;97132.06;;;6.62;70.07
9139;BME280;4604;48.616;9.548;2023-03-16T08:47:22;97130.44;;;6.73;70.08
9139;BME280;4604;48.616;9.548;2023-03-16T08:49:50;97130.28;;;6.87;69.57
9139;BME280;4604;48.616;9.548;2023-03-16T08:52:16;97127.50;;;7.01;68.59
9139;BME280;4604;48.616;9.548;2023-03-16T08:54:43;97117.25;;;6.98;67.89
9139;BME280;4604;48.616;9.548;2023-03-16T08:57:10;97118.53;;;7.28;66.47
9139;BME280;4604;48.616;9.548;2023-03-16T08:59:37;97114.81;;;7.19;66.45
9139;BME280;4604;48.616;9.548;2023-03-16T09:02:03;97122.84;;;7.29;66.23
9139;BME280;4604;48.616;9.548;2023-03-16T09:04:31;97114.41;;;7.37;65.67
9139;BME280;4604;48.616;9.548;2023-03-16T09:06:58;97116.13;;;7.49;65.06
9139;BME280;4604;48.616;9.548;2023-03-16T09:09:25;97116.25;;;7.59;64.37
9139;BME280;4604;48.616;9.548;2023-03-16T09:11:51;97109.66;;;7.53;64.08
9139;BME280;4604;48.616;9.548;2023-03-16T09:14:18;97105.41;;;7.63;62.27
9139;BME280;4604;48.616;9.548;2023-03-16T09:16:45;97105.91;;;7.68;63.23
9139;BME280;4604;48.616;9.548;2023-03-16T09:19:12;97097.06;;;7.81;63.83
9139;BME280;4604;48.616;9.548;2023-03-16T09:21:40;97091.47;;;7.97;62.58
9139;BME280;4604;48.616;9.548;2023-03-16T09:24:07;97093.00;;;7.99;62.63
9139;BME280;4604;48.616;9.548;2023-03-16T09:26:34;97090.16;;;8.02;61.67
9139;BME280;4604;48.616;9.548;2023-03-16T09:29:02;97085.00;;;8.12;61.97
9139;BME280;4604;48.616;9.548;2023-03-16T09:31:31;97092.66;;;8.26;61.81
9139;BME280;4604;48.616;9.548;2023-03-16T09:33:58;97093.25;;;8.41;61.22
9139;BME280;4604;48.616;9.548;2023-03-16T09:36:25;97092.53;;;8.39;60.73
9139;BME280;4604;48.616;9.548;2023-03-16T09:38:54;97087.06;;;8.42;61.20
9139;BME280;4604;48.616;9.548;2023-03-16T09:41:38;97089.63;;;8.65;59.38
9139;BME280;4604;48.616;9.548;2023-03-16T09:44:16;97084.00;;;8.81;59.63
9139;BME280;4604;48.616;9.548;2023-03-16T09:46:47;97087.41;;;8.92;58.82
9139;BME280;4604;48.616;9.548;2023-03-16T09:49:18;97087.38;;;9.04;58.37
9139;BME280;4604;48.616;9.548;2023-03-16T09:51:50;97072.09;;;9.18;57.24
9139;BME280;4604;48.616;9.548;2023-03-16T09:54:25;97065.75;;;9.21;57.43
9139;BME280;4604;48.616;9.548;2023-03-16T09:56:53;97066.34;;;9.25;56.91
9139;BME280;4604;48.616;9.548;2023-03-16T09:59:21;97065.38;;;9.47;56.36
9139;BME280;4604;48.616;9.548;2023-03-16T10:01:58;97062.38;;;9.51;54.48
9139;BME280;4604;48.616;9.548;2023-03-16T10:04:39;97061.19;;;9.23;54.75
9139;BME280;4604;48.616;9.548;2023-03-16T10:07:19;97067.44;;;9.22;55.43
9139;BME280;4604;48.616;9.548;2023-03-16T10:09:53;97059.59;;;9.32;53.69
9139;BME280;4604;48.616;9.548;2023-03-16T10:12:28;97053.03;;;9.26;54.35
9139;BME280;4604;48.616;9.548;2023-03-16T10:14:58;97046.28;;;9.12;54.73
9139;BME280;4604;48.616;9.548;2023-03-16T10:17:32;97047.13;;;9.13;55.63
9139;BME280;4604;48.616;9.548;2023-03-16T10:20:02;97039.09;;;9.35;55.02
9139;BME280;4604;48.616;9.548;2023-03-16T10:22:34;97039.63;;;9.29;54.39
9139;BME280;4604;48.616;9.548;2023-03-16T10:25:06;97048.34;;;9.30;54.86
9139;BME280;4604;48.616;9.548;2023-03-16T10:27:38;97055.63;;;9.37;55.10
9139;BME280;4604;48.616;9.548;2023-03-16T10:30:16;97053.16;;;9.46;55.89
9139;BME280;4604;48.616;9.548;2023-03-16T10:32:45;97048.84;;;9.65;55.08
9139;BME280;4604;48.616;9.548;2023-03-16T10:35:21;97048.06;;;9.75;54.96
9139;BME280;4604;48.616;9.548;2023-03-16T10:37:52;97039.09;;;9.87;54.04
9139;BME280;4604;48.616;9.548;2023-03-16T10:40:22;97046.88;;;9.89;55.20
9139;BME280;4604;48.616;9.548;2023-03-16T10:42:49;97057.44;;;9.89;53.69
9139;BME280;4604;48.616;9.548;2023-03-16T10:45:29;97050.78;;;9.94;51.86
9139;BME280;4604;48.616;9.548;2023-03-16T10:48:05;97063.41;;;9.91;52.29
9139;BME280;4604;48.616;9.548;2023-03-16T10:50:32;97062.38;;;9.82;52.33
9139;BME280;4604;48.616;9.548;2023-03-16T10:52:59;97074.34;;;9.86;53.28
9139;BME280;4604;48.616;9.548;2023-03-16T10:55:30;97068.53;;;9.92;53.24
9139;BME280;4604;48.616;9.548;2023-03-16T10:57:59;97051.56;;;9.85;53.79
9139;BME280;4604;48.616;9.548;2023-03-16T11:00:27;97038.44;;;9.95;53.95
9139;BME280;4604;48.616;9.548;2023-03-16T11:02:57;97038.97;;;10.19;52.88
9139;BME280;4604;48.616;9.548;2023-03-16T11:05:27;97029.38;;;10.18;53.41
9139;BME280;4604;48.616;9.548;2023-03-16T11:07:59;97031.66;;;10.33;52.63
9139;BME280;4604;48.616;9.548;2023-03-16T11:10:32;97041.84;;;10.47;51.25
9139;BME280;4604;48.616;9.548;2023-03-16T11:13:08;97032.50;;;10.43;51.23
9139;BME280;4604;48.616;9.548;2023-03-16T11:15:41;97027.41;;;10.51;52.16
9139;BME280;4604;48.616;9.548;2023-03-16T11:18:26;97035.84;;;10.45;51.44
9139;BME280;4604;48.616;9.548;2023-03-16T11:20:55;97031.72;;;10.71;51.69
9139;BME280;4604;48.616;9.548;2023-03-16T11:23:29;97041.72;;;10.68;52.08
9139;BME280;4604;48.616;9.548;2023-03-16T11:26:01;97032.28;;;10.75;51.71
9139;BME280;4604;48.616;9.548;2023-03-16T11:28:35;97024.53;;;10.83;51.14
9139;BME280;4604;48.616;9.548;2023-03-16T11:31:12;97019.66;;;10.79;52.20
9139;BME280;4604;48.616;9.548;2023-03-16T11:33:42;97017.28;;;10.76;50.66
9139;BME280;4604;48.616;9.548;2023-03-16T11:36:23;97025.34;;;10.64;51.31
9139;BME280;4604;48.616;9.548;2023-03-16T11:39:01;97019.78;;;10.77;50.81
9139;BME280;4604;48.616;9.548;2023-03-16T11:41:36;97022.56;;;10.66;50.88
9139;BME280;4604;48.616;9.548;2023-03-16T11:44:13;97031.72;;;10.62;50.30
9139;BME280;4604;48.616;9.548;2023-03-16T11:46:50;97025.22;;;10.76;51.16
9139;BME280;4604;48.616;9.548;2023-03-16T11:49:40;97013.69;;;10.77;51.72
9139;BME280;4604;48.616;9.548;2023-03-16T11:52:16;97002.00;;;10.89;51.13
9139;BME280;4604;48.616;9.548;2023-03-16T11:54:54;97000.06;;;11.01;50.85
9139;BME280;4604;48.616;9.548;2023-03-16T11:57:38;97000.47;;;11.16;51.41
9139;BME280;4604;48.616;9.548;2023-03-16T12:00:16;96995.88;;;11.18;51.01
9139;BME280;4604;48.616;9.548;2023-03-16T12:02:55;96992.81;;;11.12;51.78
9139;BME280;4604;48.616;9.548;2023-03-16T12:05:47;96997.69;;;11.17;52.17
9139;BME280;4604;48.616;9.548;2023-03-16T12:08:46;96999.06;;;11.21;49.86
9139;BME280;4604;48.616;9.548;2023-03-16T12:11:23;96984.31;;;11.19;50.96
9139;BME280;4604;48.616;9.548;2023-03-16T12:14:07;96986.69;;;11.22;49.69
9139;BME280;4604;48.616;9.548;2023-03-16T12:16:45;96985.59;;;11.24;51.49
9139;BME280;4604;48.616;9.548;2023-03-16T12:19:16;96986.00;;;11.29;50.72
9139;BME280;4604;48.616;9.548;2023-03-16T12:21:48;96976.53;;;11.37;51.06
9139;BME280;4604;48.616;9.548;2023-03-16T12:24:19;96984.84;;;11.42;51.65
9139;BME280;4604;48.616;9.548;2023-03-16T12:26:49;96981.06;;;11.54;51.65
9139;BME280;4604;48.616;9.548;2023-03-16T12:29:26;96976.28;;;11.67;50.26
9139;BME280;4604;48.616;9.548;2023-03-16T12:32:00;96963.78;;;11.60;49.93
9139;BME280;4604;48.616;9.548;2023-03-16T12:34:35;96963.09;;;11.57;50.43
9139;BME280;4604;48.616;9.548;2023-03-16T12:37:11;96958.19;;;11.63;50.31
9139;BME280;4604;48.616;9.548;2023-03-16T12:39:51;96961.44;;;11.56;52.14
9139;BME280;4604;48.616;9.548;2023-03-16T12:42:31;96949.09;;;11.38;51.36
9139;BME280;4604;48.616;9.548;2023-03-16T12:45:11;96951.16;;;11.53;52.57
9139;BME280;4604;48.616;9.548;2023-03-16T12:47:48;96945.84;;;11.63;53.35
9139;BME280;4604;48.616;9.548;2023-03-16T12:50:18;96946.19;;;11.78;52.11
9139;BME280;4604;48.616;9.548;2023-03-16T12:52:47;96947.88;;;11.69;53.17
9139;BME280;4604;48.616;9.548;2023-03-16T12:55:16;96940.97;;;11.96;51.53
9139;BME280;4604;48.616;9.548;2023-03-16T12:57:44;96936.50;;;11.96;51.30
9139;BME280;4604;48.616;9.548;2023-03-16T13:00:14;96940.47;;;12.10;51.22
9139;BME280;4604;48.616;9.548;2023-03-16T13:02:43;96930.13;;;12.17;51.10
9139;BME280;4604;48.616;9.548;2023-03-16T13:05:16;96935.66;;;12.24;51.04
9139;BME280;4604;48.616;9.548;2023-03-16T13:07:46;96933.97;;;12.05;51.54
9139;BME280;4604;48.616;9.548;2023-03-16T13:10:13;96937.59;;;12.21;50.89
9139;BME280;4604;48.616;9.548;2023-03-16T13:12:42;96932.72;;;12.27;51.80
9139;BME280;4604;48.616;9.548;2023-03-16T13:15:28;96933.16;;;12.40;50.53
9139;BME280;4604;48.616;9.548;2023-03-16T13:18:05;96935.88;;;12.30;50.07
9139;BME280;4604;48.616;9.548;2023-03-16T13:20:32;96934.53;;;12.44;51.09
9139;BME280;4604;48.616;9.548;2023-03-16T13:23:08;96936.75;;;12.49;50.80
9139;BME280;4604;48.616;9.548;2023-03-16T13:25:57;96931.28;;;12.50;50.88
9139;BME280;4604;48.616;9.548;2023-03-16T13:28:28;96935.16;;;12.56;51.20
9139;BME280;4604;48.616;9.548;2023-03-16T13:30:56;96923.19;;;12.52;49.30
9139;BME280;4604;48.616;9.548;2023-03-16T13:33:24;96922.38;;;12.51;50.86
9139;BME280;4604;48.616;9.548;2023-03-16T13:35:53;96928.13;;;12.47;51.16
9139;BME280;4604;48.616;9.548;2023-03-16T13:38:22;96925.53;;;12.37;52.17